createdAt,value
2016-03-05T00:00:44.835Z,0
2016-03-05T00:01:44.790Z,0
2016-03-05T00:02:44.558Z,0
2016-03-05T00:03:44.529Z,0
2016-03-05T00:04:45.313Z,0
2016-03-05T00:05:44.488Z,0
2016-03-05T00:06:44.460Z,0
2016-03-05T00:07:44.446Z,0
2016-03-05T00:08:44.403Z,0
2016-03-05T00:09:44.389Z,0
2016-03-05T00:10:44.361Z,0
2016-03-05T00:11:44.348Z,0
2016-03-05T00:12:44.335Z,0
2016-03-05T00:13:44.370Z,0
2016-03-05T00:14:44.262Z,0
2016-03-05T00:15:44.515Z,0
2016-03-05T00:16:44.252Z,0
2016-03-05T00:17:44.240Z,0
2016-03-05T00:18:44.195Z,0
2016-03-05T00:19:44.182Z,0
2016-03-05T00:20:44.241Z,0
2016-03-05T00:21:44.091Z,0
2016-03-05T00:22:44.067Z,0
2016-03-05T00:23:44.042Z,0
2016-03-05T00:24:44.018Z,0
2016-03-05T00:25:43.998Z,0
2016-03-05T00:26:43.965Z,0
2016-03-05T00:27:43.951Z,0
2016-03-05T00:28:43.887Z,0
2016-03-05T00:29:43.848Z,0
2016-03-05T00:30:43.849Z,0
2016-03-05T00:31:43.820Z,0
2016-03-05T00:32:43.789Z,0
2016-03-05T00:33:43.776Z,0
2016-03-05T00:34:43.762Z,0
2016-03-05T00:35:43.731Z,0
2016-03-05T00:36:43.702Z,0
2016-03-05T00:37:43.657Z,0
2016-03-05T00:38:43.658Z,0
2016-03-05T00:39:43.691Z,0
2016-03-05T00:40:43.600Z,0
2016-03-05T00:41:43.588Z,0
2016-03-05T00:42:43.560Z,0
2016-03-05T00:43:43.531Z,0
2016-03-05T00:44:43.534Z,0
2016-03-05T00:45:43.520Z,0
2016-03-05T00:46:43.476Z,0
2016-03-05T00:47:43.478Z,0
2016-03-05T00:48:43.435Z,0
2016-03-05T00:49:43.390Z,0
2016-03-05T00:50:43.378Z,0
2016-03-05T00:51:43.364Z,0
2016-03-05T00:52:43.336Z,0
2016-03-05T00:53:43.307Z,0
2016-03-05T00:54:43.295Z,0
2016-03-05T00:55:43.251Z,0
2016-03-05T00:56:43.222Z,0
2016-03-05T00:57:43.209Z,0
2016-03-05T00:58:43.180Z,0
2016-03-05T00:59:43.167Z,0
2016-03-05T01:00:43.201Z,0
2016-03-05T01:01:43.250Z,0
2016-03-05T01:02:43.114Z,0
2016-03-05T01:03:43.069Z,0
2016-03-05T01:04:43.056Z,0
2016-03-05T01:05:43.043Z,0
2016-03-05T01:06:43.046Z,0
2016-03-05T01:07:43.016Z,0
2016-03-05T01:08:42.958Z,0
2016-03-05T01:09:42.929Z,0
2016-03-05T01:10:42.916Z,0
2016-03-05T01:11:42.902Z,0
2016-03-05T01:12:43.077Z,0
2016-03-05T01:13:42.861Z,0
2016-03-05T01:14:42.832Z,0
2016-03-05T01:15:42.804Z,0
2016-03-05T01:16:42.776Z,0
2016-03-05T01:17:42.794Z,0
2016-03-05T01:18:42.734Z,0
2016-03-05T01:19:42.706Z,0
2016-03-05T01:20:42.692Z,0
2016-03-05T01:21:42.679Z,0
2016-03-05T01:22:42.650Z,0
2016-03-05T01:23:42.467Z,0
2016-03-05T01:24:42.595Z,0
2016-03-05T01:25:42.612Z,0
2016-03-05T01:26:42.567Z,0
2016-03-05T01:27:42.524Z,0
2016-03-05T01:28:42.527Z,0
2016-03-05T01:29:42.483Z,0
2016-03-05T01:30:42.469Z,0
2016-03-05T01:31:42.441Z,0
2016-03-05T01:32:42.475Z,0
2016-03-05T01:33:42.384Z,0
2016-03-05T01:34:42.355Z,0
2016-03-05T01:35:42.341Z,0
2016-03-05T01:36:42.313Z,0
2016-03-05T01:37:42.302Z,0
2016-03-05T01:38:42.288Z,0
2016-03-05T01:39:42.244Z,0
2016-03-05T01:40:42.230Z,0
2016-03-05T01:41:42.202Z,0
2016-03-05T01:42:42.173Z,0
2016-03-05T01:43:42.176Z,0
2016-03-05T01:44:42.132Z,0
2016-03-05T01:45:42.119Z,0
2016-03-05T01:46:42.107Z,0
2016-03-05T01:47:42.062Z,0
2016-03-05T01:48:42.065Z,0
2016-03-05T01:49:42.020Z,0
2016-03-05T01:50:41.992Z,0
2016-03-05T01:51:41.963Z,0
2016-03-05T01:52:41.982Z,0
2016-03-05T01:53:41.923Z,0
2016-03-05T01:54:41.925Z,0
2016-03-05T01:55:41.880Z,0
2016-03-05T01:56:41.883Z,0
2016-03-05T01:57:41.839Z,0
2016-03-05T01:58:41.826Z,0
2016-03-05T01:59:41.781Z,0
2016-03-05T02:00:41.785Z,0
2016-03-05T02:01:41.834Z,0
2016-03-05T02:02:41.586Z,0
2016-03-05T02:03:41.714Z,0
2016-03-05T02:04:41.873Z,0
2016-03-05T02:05:41.673Z,0
2016-03-05T02:06:41.630Z,0
2016-03-05T02:07:41.647Z,0
2016-03-05T02:08:41.588Z,0
2016-03-05T02:09:41.558Z,0
2016-03-05T02:10:41.530Z,0
2016-03-05T02:11:41.532Z,0
2016-03-05T02:12:41.488Z,0
2016-03-05T02:13:41.492Z,0
2016-03-05T02:14:41.432Z,0
2016-03-05T02:15:41.700Z,0
2016-03-05T02:16:41.410Z,0
2016-03-05T02:17:41.381Z,0
2016-03-05T02:18:41.336Z,0
2016-03-05T02:19:41.324Z,0
2016-03-05T02:20:41.185Z,0
2016-03-05T02:21:41.313Z,0
2016-03-05T02:22:41.270Z,0
2016-03-05T02:23:41.257Z,0
2016-03-05T02:24:41.213Z,0
2016-03-05T02:25:41.199Z,0
2016-03-05T02:26:41.171Z,0
2016-03-05T02:27:41.142Z,0
2016-03-05T02:28:41.145Z,0
2016-03-05T02:29:41.101Z,0
2016-03-05T02:30:41.088Z,0
2016-03-05T02:31:41.059Z,0
2016-03-05T02:32:41.109Z,0
2016-03-05T02:33:41.002Z,0
2016-03-05T02:34:41.021Z,0
2016-03-05T02:35:40.961Z,0
2016-03-05T02:36:40.948Z,0
2016-03-05T02:37:40.920Z,0
2016-03-05T02:38:40.906Z,0
2016-03-05T02:39:40.862Z,0
2016-03-05T02:40:40.864Z,0
2016-03-05T02:41:40.805Z,0
2016-03-05T02:42:40.808Z,0
2016-03-05T02:43:40.795Z,0
2016-03-05T02:44:40.767Z,0
2016-03-05T02:45:40.738Z,0
2016-03-05T02:46:40.741Z,0
2016-03-05T02:47:40.664Z,0
2016-03-05T02:48:40.667Z,0
2016-03-05T02:49:40.623Z,0
2016-03-05T02:50:40.642Z,0
2016-03-05T02:51:40.583Z,0
2016-03-05T02:52:40.553Z,0
2016-03-05T02:53:40.556Z,0
2016-03-05T02:54:40.496Z,0
2016-03-05T02:55:40.515Z,0
2016-03-05T02:56:40.626Z,0
2016-03-05T02:57:40.457Z,0
2016-03-05T02:58:40.585Z,0
2016-03-05T02:59:40.416Z,0
2016-03-05T03:00:40.371Z,0
2016-03-05T03:01:40.374Z,0
2016-03-05T03:02:40.329Z,0
2016-03-05T03:03:40.317Z,0
2016-03-05T03:04:40.289Z,0
2016-03-05T03:05:40.259Z,0
2016-03-05T03:06:40.232Z,0
2016-03-05T03:07:40.484Z,0
2016-03-05T03:08:40.206Z,0
2016-03-05T03:09:40.161Z,0
2016-03-05T03:10:40.164Z,0
2016-03-05T03:11:40.120Z,0
2016-03-05T03:12:40.217Z,0
2016-03-05T03:13:40.079Z,0
2016-03-05T03:14:40.066Z,0
2016-03-05T03:15:40.022Z,0
2016-03-05T03:16:40.008Z,0
2016-03-05T03:17:39.980Z,0
2016-03-05T03:18:39.951Z,0
2016-03-05T03:19:40.033Z,0
2016-03-05T03:20:39.911Z,0
2016-03-05T03:21:39.881Z,0
2016-03-05T03:22:39.853Z,0
2016-03-05T03:23:39.855Z,0
2016-03-05T03:24:39.827Z,0
2016-03-05T03:25:39.798Z,0
2016-03-05T03:26:39.785Z,0
2016-03-05T03:27:39.757Z,0
2016-03-05T03:28:39.744Z,0
2016-03-05T03:29:39.700Z,0
2016-03-05T03:30:39.671Z,0
2016-03-05T03:31:39.658Z,0
2016-03-05T03:32:39.614Z,0
2016-03-05T03:33:39.617Z,0
2016-03-05T03:34:39.573Z,0
2016-03-05T03:35:39.560Z,0
2016-03-05T03:36:39.531Z,0
2016-03-05T03:37:39.518Z,0
2016-03-05T03:38:39.489Z,0
2016-03-05T03:39:39.476Z,0
2016-03-05T03:40:39.448Z,0
2016-03-05T03:41:39.420Z,0
2016-03-05T03:42:39.404Z,0
2016-03-05T03:43:39.392Z,0
2016-03-05T03:44:39.363Z,0
2016-03-05T03:45:39.334Z,0
2016-03-05T03:46:39.305Z,0
2016-03-05T03:47:39.277Z,0
2016-03-05T03:48:39.280Z,0
2016-03-05T03:49:39.219Z,0
2016-03-05T03:50:39.207Z,0
2016-03-05T03:51:39.194Z,0
2016-03-05T03:52:39.150Z,0
2016-03-05T03:53:39.136Z,0
2016-03-05T03:54:39.139Z,0
2016-03-05T03:55:39.329Z,0
2016-03-05T03:56:39.082Z,0
2016-03-05T03:57:39.022Z,0
2016-03-05T03:58:39.010Z,0
2016-03-05T03:59:38.981Z,0
2016-03-05T04:00:38.968Z,0
2016-03-05T04:01:38.955Z,0
2016-03-05T04:02:38.926Z,0
2016-03-05T04:03:38.898Z,0
2016-03-05T04:04:39.040Z,0
2016-03-05T04:05:38.685Z,0
2016-03-05T04:06:38.813Z,0
2016-03-05T04:07:38.799Z,0
2016-03-05T04:08:38.771Z,0
2016-03-05T04:09:38.757Z,0
2016-03-05T04:10:38.729Z,0
2016-03-05T04:11:38.701Z,0
2016-03-05T04:12:38.688Z,0
2016-03-05T04:13:38.660Z,0
2016-03-05T04:14:38.646Z,0
2016-03-05T04:15:38.649Z,0
2016-03-05T04:16:38.605Z,0
2016-03-05T04:17:38.575Z,0
2016-03-05T04:18:38.547Z,0
2016-03-05T04:19:38.582Z,0
2016-03-05T04:20:38.491Z,0
2016-03-05T04:21:38.478Z,0
2016-03-05T04:22:38.293Z,0
2016-03-05T04:23:38.420Z,0
2016-03-05T04:24:38.422Z,0
2016-03-05T04:25:38.363Z,0
2016-03-05T04:26:38.336Z,0
2016-03-05T04:27:38.353Z,0
2016-03-05T04:28:38.325Z,0
2016-03-05T04:29:38.296Z,0
2016-03-05T04:30:38.252Z,0
2016-03-05T04:31:38.285Z,0
2016-03-05T04:32:38.226Z,0
2016-03-05T04:33:38.228Z,0
2016-03-05T04:34:38.169Z,0
2016-03-05T04:35:38.141Z,0
2016-03-05T04:36:38.127Z,0
2016-03-05T04:37:38.083Z,0
2016-03-05T04:38:38.601Z,0
2016-03-05T04:39:38.042Z,0
2016-03-05T04:40:38.028Z,0
2016-03-05T04:41:38.031Z,0
2016-03-05T04:42:38.004Z,0
2016-03-05T04:43:37.959Z,0
2016-03-05T04:44:37.946Z,0
2016-03-05T04:45:37.901Z,0
2016-03-05T04:46:37.903Z,0
2016-03-05T04:47:37.859Z,0
2016-03-05T04:48:37.848Z,0
2016-03-05T04:49:37.819Z,0
2016-03-05T04:50:37.790Z,0
2016-03-05T04:51:37.777Z,0
2016-03-05T04:52:37.748Z,0
2016-03-05T04:53:37.704Z,0
2016-03-05T04:54:37.707Z,0
2016-03-05T04:55:37.725Z,0
2016-03-05T04:56:37.900Z,0
2016-03-05T04:57:37.622Z,0
2016-03-05T04:58:37.594Z,0
2016-03-05T04:59:37.580Z,0
2016-03-05T05:00:37.551Z,0
2016-03-05T05:01:37.647Z,0
2016-03-05T05:02:37.510Z,0
2016-03-05T05:03:37.482Z,0
2016-03-05T05:04:37.453Z,0
2016-03-05T05:05:37.643Z,0
2016-03-05T05:06:37.412Z,0
2016-03-05T05:07:37.383Z,0
2016-03-05T05:08:37.370Z,0
2016-03-05T05:09:37.341Z,0
2016-03-05T05:10:37.376Z,0
2016-03-05T05:11:37.286Z,0
2016-03-05T05:12:37.288Z,0
2016-03-05T05:13:37.244Z,0
2016-03-05T05:14:37.215Z,0
2016-03-05T05:15:37.202Z,0
2016-03-05T05:16:37.188Z,0
2016-03-05T05:17:37.144Z,0
2016-03-05T05:18:37.132Z,0
2016-03-05T05:19:37.119Z,0
2016-03-05T05:20:37.091Z,0
2016-03-05T05:21:37.062Z,0
2016-03-05T05:22:37.033Z,0
2016-03-05T05:23:37.020Z,0
2016-03-05T05:24:36.976Z,0
2016-03-05T05:25:36.978Z,0
2016-03-05T05:26:36.935Z,0
2016-03-05T05:27:36.938Z,0
2016-03-05T05:28:36.878Z,0
2016-03-05T05:29:36.896Z,0
2016-03-05T05:30:36.836Z,0
2016-03-05T05:31:36.839Z,0
2016-03-05T05:32:36.795Z,0
2016-03-05T05:33:36.797Z,0
2016-03-05T05:34:36.737Z,0
2016-03-05T05:35:36.739Z,0
2016-03-05T05:36:36.696Z,0
2016-03-05T05:37:36.683Z,0
2016-03-05T05:38:36.654Z,0
2016-03-05T05:39:36.625Z,0
2016-03-05T05:40:36.628Z,0
2016-03-05T05:41:36.647Z,0
2016-03-05T05:42:36.556Z,0
2016-03-05T05:43:36.558Z,0
2016-03-05T05:44:36.514Z,0
2016-03-05T05:45:36.502Z,0
2016-03-05T05:46:36.488Z,0
2016-03-05T05:47:36.507Z,0
2016-03-05T05:48:36.431Z,0
2016-03-05T05:49:36.419Z,0
2016-03-05T05:50:36.358Z,0
2016-03-05T05:51:36.565Z,0
2016-03-05T05:52:36.317Z,0
2016-03-05T05:53:36.288Z,4
2016-03-05T05:54:36.275Z,4
2016-03-05T05:55:36.247Z,4
2016-03-05T05:56:36.219Z,0
2016-03-05T05:57:36.221Z,4
2016-03-05T05:58:36.349Z,4
2016-03-05T05:59:36.164Z,4
2016-03-05T06:00:36.135Z,8
2016-03-05T06:01:36.092Z,4
2016-03-05T06:02:36.094Z,8
2016-03-05T06:03:36.082Z,8
2016-03-05T06:04:36.037Z,8
2016-03-05T06:05:35.853Z,12
2016-03-05T06:06:35.995Z,12
2016-03-05T06:07:35.951Z,16
2016-03-05T06:08:35.939Z,16
2016-03-05T06:09:35.925Z,16
2016-03-05T06:10:35.912Z,20
2016-03-05T06:11:35.712Z,20
2016-03-05T06:12:35.856Z,24
2016-03-05T06:13:35.874Z,24
2016-03-05T06:14:35.798Z,28
2016-03-05T06:15:35.769Z,32
2016-03-05T06:16:35.757Z,40
2016-03-05T06:17:35.727Z,40
2016-03-05T06:18:35.730Z,40
2016-03-05T06:19:35.687Z,44
2016-03-05T06:20:35.643Z,44
2016-03-05T06:21:35.646Z,48
2016-03-05T06:22:35.601Z,52
2016-03-05T06:23:35.603Z,56
2016-03-05T06:24:35.574Z,68
2016-03-05T06:25:35.546Z,72
2016-03-05T06:26:35.518Z,80
2016-03-05T06:27:35.474Z,88
2016-03-05T06:28:35.493Z,88
2016-03-05T06:29:35.432Z,96
2016-03-05T06:30:35.419Z,104
2016-03-05T06:31:35.390Z,112
2016-03-05T06:32:35.379Z,120
2016-03-05T06:33:35.349Z,124
2016-03-05T06:34:35.336Z,124
2016-03-05T06:35:35.324Z,128
2016-03-05T06:36:35.279Z,144
2016-03-05T06:37:35.250Z,160
2016-03-05T06:38:35.253Z,184
2016-03-05T06:39:35.194Z,208
2016-03-05T06:40:35.197Z,220
2016-03-05T06:41:35.168Z,224
2016-03-05T06:42:35.139Z,228
2016-03-05T06:43:35.111Z,256
2016-03-05T06:44:35.191Z,304
2016-03-05T06:45:35.069Z,336
2016-03-05T06:46:35.040Z,348
2016-03-05T06:47:35.011Z,344
2016-03-05T06:48:34.984Z,340
2016-03-05T06:49:34.971Z,336
2016-03-05T06:50:34.942Z,344
2016-03-05T06:51:34.944Z,348
2016-03-05T06:52:34.885Z,340
2016-03-05T06:53:34.902Z,324
2016-03-05T06:54:34.843Z,288
2016-03-05T06:55:35.033Z,292
2016-03-05T06:56:34.818Z,264
2016-03-05T06:57:34.789Z,268
2016-03-05T06:58:34.791Z,260
2016-03-05T06:59:34.716Z,272
2016-03-05T07:00:34.781Z,288
2016-03-05T07:01:34.690Z,300
2016-03-05T07:02:34.646Z,288
2016-03-05T07:03:34.648Z,292
2016-03-05T07:04:34.605Z,296
2016-03-05T07:05:34.592Z,328
2016-03-05T07:06:34.579Z,344
2016-03-05T07:07:34.534Z,360
2016-03-05T07:08:34.522Z,388
2016-03-05T07:09:34.524Z,376
2016-03-05T07:10:34.480Z,392
2016-03-05T07:11:34.498Z,408
2016-03-05T07:12:34.439Z,420
2016-03-05T07:13:34.378Z,424
2016-03-05T07:14:34.397Z,424
2016-03-05T07:15:34.352Z,440
2016-03-05T07:16:34.324Z,452
2016-03-05T07:17:34.296Z,456
2016-03-05T07:18:34.283Z,448
2016-03-05T07:19:34.255Z,448
2016-03-05T07:20:34.226Z,468
2016-03-05T07:21:34.057Z,508
2016-03-05T07:22:34.184Z,512
2016-03-05T07:23:34.218Z,480
2016-03-05T07:24:34.143Z,508
2016-03-05T07:25:34.130Z,492
2016-03-05T07:26:34.101Z,460
2016-03-05T07:27:34.057Z,448
2016-03-05T07:28:34.029Z,432
2016-03-05T07:29:34.016Z,440
2016-03-05T07:30:33.971Z,484
2016-03-05T07:31:33.959Z,552
2016-03-05T07:32:33.945Z,612
2016-03-05T07:33:33.965Z,660
2016-03-05T07:34:33.888Z,636
2016-03-05T07:35:33.875Z,648
2016-03-05T07:36:33.831Z,692
2016-03-05T07:37:33.834Z,752
2016-03-05T07:38:33.836Z,808
2016-03-05T07:39:33.792Z,768
2016-03-05T07:40:33.842Z,828
2016-03-05T07:41:33.939Z,840
2016-03-05T07:42:33.723Z,984
2016-03-05T07:43:33.725Z,1052
2016-03-05T07:44:33.665Z,1044
2016-03-05T07:45:33.933Z,984
2016-03-05T07:46:33.608Z,844
2016-03-05T07:47:34.002Z,796
2016-03-05T07:48:33.566Z,704
2016-03-05T07:49:33.539Z,636
2016-03-05T07:50:33.510Z,592
2016-03-05T07:51:33.528Z,584
2016-03-05T07:52:33.686Z,552
2016-03-05T07:53:33.439Z,512
2016-03-05T07:54:33.442Z,496
2016-03-05T07:55:33.398Z,496
2016-03-05T07:56:33.369Z,512
2016-03-05T07:57:33.482Z,516
2016-03-05T07:58:33.313Z,472
2016-03-05T07:59:33.299Z,464
2016-03-05T08:00:33.302Z,452
2016-03-05T08:01:33.242Z,420
2016-03-05T08:02:33.246Z,396
2016-03-05T08:03:33.201Z,384
2016-03-05T08:04:33.188Z,352
2016-03-05T08:05:33.177Z,368
2016-03-05T08:06:33.163Z,396
2016-03-05T08:07:33.102Z,392
2016-03-05T08:08:33.090Z,392
2016-03-05T08:09:33.046Z,400
2016-03-05T08:10:33.049Z,432
2016-03-05T08:11:33.020Z,452
2016-03-05T08:12:32.991Z,464
2016-03-05T08:13:32.963Z,480
2016-03-05T08:14:32.950Z,492
2016-03-05T08:15:32.921Z,504
2016-03-05T08:16:32.909Z,496
2016-03-05T08:17:32.865Z,488
2016-03-05T08:18:32.852Z,436
2016-03-05T08:19:32.807Z,432
2016-03-05T08:20:32.825Z,444
2016-03-05T08:21:32.781Z,444
2016-03-05T08:22:32.753Z,444
2016-03-05T08:23:32.725Z,452
2016-03-05T08:24:32.696Z,492
2016-03-05T08:25:32.683Z,540
2016-03-05T08:26:32.654Z,572
2016-03-05T08:27:32.626Z,600
2016-03-05T08:28:32.613Z,616
2016-03-05T08:29:32.600Z,620
2016-03-05T08:30:32.571Z,628
2016-03-05T08:31:32.542Z,664
2016-03-05T08:32:32.514Z,720
2016-03-05T08:33:32.344Z,924
2016-03-05T08:34:32.473Z,1064
2016-03-05T08:35:32.444Z,1052
2016-03-05T08:36:32.416Z,960
2016-03-05T08:37:32.402Z,936
2016-03-05T08:38:32.624Z,908
2016-03-05T08:39:32.346Z,996
2016-03-05T08:40:32.316Z,1040
2016-03-05T08:41:32.335Z,948
2016-03-05T08:42:32.276Z,904
2016-03-05T08:43:32.372Z,888
2016-03-05T08:44:32.234Z,896
2016-03-05T08:45:32.205Z,1016
2016-03-05T08:46:32.240Z,1020
2016-03-05T08:47:32.164Z,940
2016-03-05T08:48:32.135Z,896
2016-03-05T08:49:32.106Z,792
2016-03-05T08:50:32.079Z,780
2016-03-05T08:51:32.065Z,892
2016-03-05T08:52:32.037Z,1008
2016-03-05T08:53:32.023Z,1096
2016-03-05T08:54:32.245Z,1300
2016-03-05T08:55:31.982Z,1472
2016-03-05T08:56:31.953Z,1424
2016-03-05T08:57:31.925Z,1456
2016-03-05T08:58:31.897Z,1412
2016-03-05T08:59:31.868Z,1532
2016-03-05T09:00:31.855Z,1540
2016-03-05T09:01:31.827Z,1608
2016-03-05T09:02:31.814Z,1532
2016-03-05T09:03:31.786Z,1540
2016-03-05T09:04:31.756Z,1492
2016-03-05T09:05:31.602Z,1476
2016-03-05T09:06:31.746Z,1636
2016-03-05T09:07:31.686Z,1536
2016-03-05T09:08:31.674Z,1440
2016-03-05T09:09:31.630Z,1452
2016-03-05T09:10:31.616Z,1336
2016-03-05T09:11:31.604Z,1200
2016-03-05T09:12:31.559Z,1272
2016-03-05T09:13:31.530Z,1264
2016-03-05T09:14:31.502Z,1080
2016-03-05T09:15:31.505Z,1184
2016-03-05T09:16:31.476Z,1108
2016-03-05T09:17:31.479Z,1292
2016-03-05T09:18:31.434Z,1432
2016-03-05T09:19:31.406Z,1564
2016-03-05T09:20:31.378Z,1624
2016-03-05T09:21:31.349Z,1728
2016-03-05T09:22:31.320Z,1544
2016-03-05T09:23:31.339Z,1452
2016-03-05T09:24:31.279Z,1600
2016-03-05T09:25:31.266Z,1648
2016-03-05T09:26:31.222Z,1492
2016-03-05T09:27:31.197Z,1524
2016-03-05T09:28:31.154Z,1456
2016-03-05T09:29:31.111Z,1328
2016-03-05T09:30:31.084Z,1448
2016-03-05T09:31:31.041Z,1464
2016-03-05T09:32:31.038Z,1456
2016-03-05T09:33:31.035Z,1452
2016-03-05T09:34:30.798Z,1548
2016-03-05T09:35:30.937Z,1604
2016-03-05T09:36:30.904Z,1880
2016-03-05T09:37:30.935Z,1996
2016-03-05T09:38:30.858Z,1920
2016-03-05T09:39:30.874Z,1680
2016-03-05T09:40:30.984Z,1876
2016-03-05T09:41:30.782Z,1644
2016-03-05T09:42:30.752Z,1384
2016-03-05T09:43:31.302Z,1236
2016-03-05T09:44:30.929Z,1220
2016-03-05T09:45:30.713Z,1212
2016-03-05T09:46:30.653Z,1476
2016-03-05T09:47:30.624Z,1508
2016-03-05T09:48:30.595Z,1412
2016-03-05T09:49:30.581Z,1456
2016-03-05T09:50:30.567Z,1176
2016-03-05T09:51:30.773Z,1340
2016-03-05T09:52:30.511Z,1548
2016-03-05T09:53:30.497Z,1864
2016-03-05T09:54:30.453Z,2032
2016-03-05T09:55:30.284Z,1996
2016-03-05T09:56:30.428Z,2152
2016-03-05T09:57:30.430Z,2072
2016-03-05T09:58:30.371Z,1752
2016-03-05T09:59:30.358Z,1508
2016-03-05T10:00:30.330Z,1576
2016-03-05T10:01:30.300Z,1724
2016-03-05T10:02:30.271Z,1536
2016-03-05T10:03:30.259Z,1428
2016-03-05T10:04:30.230Z,1380
2016-03-05T10:05:30.202Z,1284
2016-03-05T10:06:30.189Z,1268
2016-03-05T10:07:30.176Z,1312
2016-03-05T10:08:30.132Z,1356
2016-03-05T10:09:30.134Z,1420
2016-03-05T10:10:30.074Z,1516
2016-03-05T10:11:30.061Z,1360
2016-03-05T10:12:30.049Z,1324
2016-03-05T10:13:30.004Z,1288
2016-03-05T10:14:30.007Z,1332
2016-03-05T10:15:29.963Z,1372
2016-03-05T10:16:29.982Z,1228
2016-03-05T10:17:29.922Z,1168
2016-03-05T10:18:29.970Z,1204
2016-03-05T10:19:29.864Z,1084
2016-03-05T10:20:29.867Z,1132
2016-03-05T10:21:29.839Z,1056
2016-03-05T10:22:29.811Z,1152
2016-03-05T10:23:29.781Z,1052
2016-03-05T10:24:29.784Z,1108
2016-03-05T10:25:29.739Z,1256
2016-03-05T10:26:29.727Z,1280
2016-03-05T10:27:29.714Z,1476
2016-03-05T10:28:29.655Z,1576
2016-03-05T10:29:29.658Z,1884
2016-03-05T10:30:29.628Z,1792
2016-03-05T10:31:29.475Z,1888
2016-03-05T10:32:29.555Z,1956
2016-03-05T10:33:29.543Z,1880
2016-03-05T10:34:29.529Z,1536
2016-03-05T10:35:29.485Z,1224
2016-03-05T10:36:29.488Z,1484
2016-03-05T10:37:29.726Z,1848
2016-03-05T10:38:29.447Z,1872
2016-03-05T10:39:29.402Z,1780
2016-03-05T10:40:29.390Z,1584
2016-03-05T10:41:29.361Z,1432
2016-03-05T10:42:29.239Z,1636
2016-03-05T10:43:29.444Z,1900
2016-03-05T10:44:29.291Z,2100
2016-03-05T10:45:29.294Z,2424
2016-03-05T10:46:29.234Z,2768
2016-03-05T10:47:29.221Z,3216
2016-03-05T10:48:29.192Z,3644
2016-03-05T10:49:29.179Z,3936
2016-03-05T10:50:29.198Z,3552
2016-03-05T10:51:29.139Z,3128
2016-03-05T10:52:29.109Z,2936
2016-03-05T10:53:29.065Z,2916
2016-03-05T10:54:29.084Z,2976
2016-03-05T10:55:29.055Z,3068
2016-03-05T10:56:29.027Z,3260
2016-03-05T10:57:28.982Z,3516
2016-03-05T10:58:28.986Z,3652
2016-03-05T10:59:28.955Z,3744
2016-03-05T11:00:28.928Z,3968
2016-03-05T11:01:28.899Z,4092
2016-03-05T11:02:28.871Z,4224
2016-03-05T11:03:28.873Z,4244
2016-03-05T11:04:28.969Z,4252
2016-03-05T11:05:28.832Z,4312
2016-03-05T11:06:28.772Z,4248
2016-03-05T11:07:28.774Z,4296
2016-03-05T11:08:28.747Z,4064
2016-03-05T11:09:28.718Z,4032
2016-03-05T11:10:28.673Z,4360
2016-03-05T11:11:28.660Z,4068
2016-03-05T11:12:28.647Z,3484
2016-03-05T11:13:28.635Z,3428
2016-03-05T11:14:28.590Z,3416
2016-03-05T11:15:28.640Z,4200
2016-03-05T11:16:28.565Z,4364
2016-03-05T11:17:28.536Z,4280
2016-03-05T11:18:28.507Z,3932
2016-03-05T11:19:28.478Z,3608
2016-03-05T11:20:28.481Z,3532
2016-03-05T11:21:28.454Z,3380
2016-03-05T11:22:28.409Z,3104
2016-03-05T11:23:28.396Z,2928
2016-03-05T11:24:28.352Z,3296
2016-03-05T11:25:28.355Z,3264
2016-03-05T11:26:28.310Z,3224
2016-03-05T11:27:28.313Z,3260
2016-03-05T11:28:28.283Z,3384
2016-03-05T11:29:28.255Z,3528
2016-03-05T11:30:28.244Z,3548
2016-03-05T11:31:28.199Z,3224
2016-03-05T11:32:28.217Z,2924
2016-03-05T11:33:28.157Z,3048
2016-03-05T11:34:28.191Z,2948
2016-03-05T11:35:28.115Z,2608
2016-03-05T11:36:27.352Z,2024
2016-03-05T11:37:28.091Z,1676
2016-03-05T11:38:28.046Z,1776
2016-03-05T11:39:28.049Z,1812
2016-03-05T11:40:28.004Z,1724
2016-03-05T11:41:27.976Z,1652
2016-03-05T11:42:27.806Z,1672
2016-03-05T11:43:27.949Z,1812
2016-03-05T11:44:27.952Z,1980
2016-03-05T11:45:28.143Z,2048
2016-03-05T11:46:27.896Z,2084
2016-03-05T11:47:27.835Z,2196
2016-03-05T11:48:27.838Z,2244
2016-03-05T11:49:27.809Z,2224
2016-03-05T11:50:27.782Z,2068
2016-03-05T11:51:27.767Z,1996
2016-03-05T11:52:27.740Z,1804
2016-03-05T11:53:27.742Z,1856
2016-03-05T11:54:27.698Z,1984
2016-03-05T11:55:27.653Z,1972
2016-03-05T11:56:27.641Z,1904
2016-03-05T11:57:27.628Z,1796
2016-03-05T11:58:27.583Z,1740
2016-03-05T11:59:27.634Z,1740
2016-03-05T12:00:27.574Z,1908
2016-03-05T12:01:27.545Z,2156
2016-03-05T12:02:27.516Z,2104
2016-03-05T12:03:27.488Z,1848
2016-03-05T12:04:27.460Z,1916
2016-03-05T12:05:27.430Z,2024
2016-03-05T12:06:27.419Z,2012
2016-03-05T12:07:27.374Z,1912
2016-03-05T12:08:27.377Z,1796
2016-03-05T12:09:27.349Z,1800
2016-03-05T12:10:27.319Z,1908
2016-03-05T12:11:27.290Z,1844
2016-03-05T12:12:27.277Z,1764
2016-03-05T12:13:27.249Z,1768
2016-03-05T12:14:27.220Z,1776
2016-03-05T12:15:27.208Z,1700
2016-03-05T12:16:27.179Z,1712
2016-03-05T12:17:27.166Z,1832
2016-03-05T12:18:27.200Z,2000
2016-03-05T12:19:27.156Z,2128
2016-03-05T12:20:27.081Z,2232
2016-03-05T12:21:27.083Z,2228
2016-03-05T12:22:27.071Z,2128
2016-03-05T12:23:27.042Z,2024
2016-03-05T12:24:26.982Z,1872
2016-03-05T12:25:26.985Z,1688
2016-03-05T12:26:26.972Z,1624
2016-03-05T12:27:26.927Z,1604
2016-03-05T12:28:26.945Z,1684
2016-03-05T12:29:27.105Z,1876
2016-03-05T12:30:27.108Z,1988
2016-03-05T12:31:26.986Z,1984
2016-03-05T12:32:26.660Z,2080
2016-03-05T12:33:26.772Z,2076
2016-03-05T12:34:26.774Z,2064
2016-03-05T12:35:26.746Z,2028
2016-03-05T12:36:26.717Z,2020
2016-03-05T12:37:26.688Z,2112
2016-03-05T12:38:26.692Z,1944
2016-03-05T12:39:26.647Z,1772
2016-03-05T12:40:25.916Z,1656
2016-03-05T12:41:26.605Z,1652
2016-03-05T12:42:25.858Z,1732
2016-03-05T12:43:25.830Z,1884
2016-03-05T12:44:26.535Z,2176
2016-03-05T12:45:26.523Z,2364
2016-03-05T12:46:26.526Z,2524
2016-03-05T12:47:26.466Z,2540
2016-03-05T12:48:26.453Z,2584
2016-03-05T12:49:26.627Z,2672
2016-03-05T12:50:26.395Z,2824
2016-03-05T12:51:26.462Z,2860
2016-03-05T12:52:26.401Z,2880
2016-03-05T12:53:26.325Z,2868
2016-03-05T12:54:26.313Z,2920
2016-03-05T12:55:26.268Z,3024
2016-03-05T12:56:26.303Z,2896
2016-03-05T12:57:26.258Z,2692
2016-03-05T12:58:26.230Z,2620
2016-03-05T12:59:26.201Z,2676
2016-03-05T13:00:26.173Z,2840
2016-03-05T13:01:26.144Z,2980
2016-03-05T13:02:26.131Z,2584
2016-03-05T13:03:26.102Z,2348
2016-03-05T13:04:26.089Z,2376
2016-03-05T13:05:26.077Z,2612
2016-03-05T13:06:26.079Z,2668
2016-03-05T13:07:26.005Z,2592
2016-03-05T13:08:25.991Z,2456
2016-03-05T13:09:25.977Z,2284
2016-03-05T13:10:25.949Z,2244
2016-03-05T13:11:25.921Z,2268
2016-03-05T13:12:25.908Z,2368
2016-03-05T13:13:25.863Z,2532
2016-03-05T13:14:25.851Z,2764
2016-03-05T13:15:25.838Z,2832
2016-03-05T13:16:25.810Z,2840
2016-03-05T13:17:25.796Z,2980
2016-03-05T13:18:26.159Z,3128
2016-03-05T13:19:25.739Z,3564
2016-03-05T13:20:25.757Z,4144
2016-03-05T13:21:25.698Z,4416
2016-03-05T13:22:25.669Z,4092
2016-03-05T13:23:25.891Z,3916
2016-03-05T13:24:25.643Z,3960
2016-03-05T13:25:25.615Z,4028
2016-03-05T13:26:25.586Z,4276
2016-03-05T13:27:25.573Z,4336
2016-03-05T13:28:25.623Z,4220
2016-03-05T13:29:25.532Z,3852
2016-03-05T13:30:25.487Z,3832
2016-03-05T13:31:25.474Z,3572
2016-03-05T13:32:25.461Z,3512
2016-03-05T13:33:25.417Z,3080
2016-03-05T13:34:25.733Z,2916
2016-03-05T13:35:25.376Z,2784
2016-03-05T13:36:25.364Z,2560
2016-03-05T13:37:25.335Z,2384
2016-03-05T13:38:25.338Z,2240
2016-03-05T13:39:25.466Z,2168
2016-03-05T13:40:25.139Z,2240
2016-03-05T13:41:25.236Z,2344
2016-03-05T13:42:25.224Z,2396
2016-03-05T13:43:25.242Z,2380
2016-03-05T13:44:25.182Z,2252
2016-03-05T13:45:25.232Z,2212
2016-03-05T13:46:25.140Z,2236
2016-03-05T13:47:25.190Z,2164
2016-03-05T13:48:25.115Z,2080
2016-03-05T13:49:25.085Z,2096
2016-03-05T13:50:25.104Z,2112
2016-03-05T13:51:25.028Z,2144
2016-03-05T13:52:25.016Z,2284
2016-03-05T13:53:24.971Z,2480
2016-03-05T13:54:24.974Z,2628
2016-03-05T13:55:24.945Z,2716
2016-03-05T13:56:24.917Z,2664
2016-03-05T13:57:24.982Z,2556
2016-03-05T13:58:24.875Z,2468
2016-03-05T13:59:24.862Z,2412
2016-03-05T14:00:24.850Z,2444
2016-03-05T14:01:24.868Z,2632